sensor_id;sensor_type;location;lat;lon;timestamp;P1;durP1;ratioP1;P2;durP2;ratioP2
30398;SDS011;17195;50.838;7.214;2023-07-08T00:02:07;8.05;;;5.35;;
30398;SDS011;17195;50.838;7.214;2023-07-08T00:04:36;8.52;;;5.50;;
30398;SDS011;17195;50.838;7.214;2023-07-08T00:07:03;6.55;;;5.32;;
30398;SDS011;17195;50.838;7.214;2023-07-08T00:09:28;8.38;;;5.85;;
30398;SDS011;17195;50.838;7.214;2023-07-08T00:11:55;8.57;;;5.82;;
30398;SDS011;17195;50.838;7.214;2023-07-08T00:14:22;10.27;;;5.50;;
30398;SDS011;17195;50.838;7.214;2023-07-08T00:16:48;6.90;;;5.57;;
30398;SDS011;17195;50.838;7.214;2023-07-08T00:19:14;6.63;;;5.00;;
30398;SDS011;17195;50.838;7.214;2023-07-08T00:21:44;6.85;;;5.38;;
30398;SDS011;17195;50.838;7.214;2023-07-08T00:24:10;7.25;;;5.30;;
30398;SDS011;17195;50.838;7.214;2023-07-08T00:26:36;7.88;;;4.93;;
30398;SDS011;17195;50.838;7.214;2023-07-08T00:29:02;7.55;;;4.85;;
30398;SDS011;17195;50.838;7.214;2023-07-08T00:31:28;6.97;;;4.40;;
30398;SDS011;17195;50.838;7.214;2023-07-08T00:33:57;7.45;;;5.68;;
30398;SDS011;17195;50.838;7.214;2023-07-08T00:36:22;6.55;;;4.75;;
30398;SDS011;17195;50.838;7.214;2023-07-08T00:38:50;6.72;;;5.13;;
30398;SDS011;17195;50.838;7.214;2023-07-08T00:41:20;6.43;;;5.10;;
30398;SDS011;17195;50.838;7.214;2023-07-08T00:43:57;7.95;;;5.30;;
30398;SDS011;17195;50.838;7.214;2023-07-08T00:48:57;6.55;;;4.63;;
30398;SDS011;17195;50.838;7.214;2023-07-08T00:51:33;8.40;;;5.53;;
30398;SDS011;17195;50.838;7.214;2023-07-08T00:54:02;6.25;;;4.88;;
30398;SDS011;17195;50.838;7.214;2023-07-08T00:56:30;5.28;;;4.57;;
30398;SDS011;17195;50.838;7.214;2023-07-08T01:01:51;7.00;;;5.28;;
30398;SDS011;17195;50.838;7.214;2023-07-08T01:06:59;6.35;;;4.72;;
30398;SDS011;17195;50.838;7.214;2023-07-08T01:09:33;8.05;;;4.93;;
30398;SDS011;17195;50.838;7.214;2023-07-08T01:12:03;9.02;;;5.30;;
30398;SDS011;17195;50.838;7.214;2023-07-08T01:14:33;7.57;;;5.00;;
30398;SDS011;17195;50.838;7.214;2023-07-08T01:17:00;6.35;;;5.22;;
30398;SDS011;17195;50.838;7.214;2023-07-08T01:19:26;6.05;;;4.95;;
30398;SDS011;17195;50.838;7.214;2023-07-08T01:22:05;6.72;;;5.05;;
30398;SDS011;17195;50.838;7.214;2023-07-08T01:24:33;7.78;;;5.60;;
30398;SDS011;17195;50.838;7.214;2023-07-08T01:27:01;9.30;;;5.63;;
30398;SDS011;17195;50.838;7.214;2023-07-08T01:29:30;6.68;;;5.40;;
30398;SDS011;17195;50.838;7.214;2023-07-08T01:31:56;7.68;;;5.70;;
30398;SDS011;17195;50.838;7.214;2023-07-08T01:34:22;8.98;;;6.20;;
30398;SDS011;17195;50.838;7.214;2023-07-08T01:36:49;9.07;;;5.70;;
30398;SDS011;17195;50.838;7.214;2023-07-08T01:39:18;8.68;;;5.90;;
30398;SDS011;17195;50.838;7.214;2023-07-08T01:41:45;7.22;;;5.80;;
30398;SDS011;17195;50.838;7.214;2023-07-08T01:46:47;6.95;;;5.38;;
30398;SDS011;17195;50.838;7.214;2023-07-08T01:49:14;9.50;;;6.25;;
30398;SDS011;17195;50.838;7.214;2023-07-08T01:51:40;7.20;;;5.43;;
30398;SDS011;17195;50.838;7.214;2023-07-08T01:54:05;7.15;;;5.68;;
30398;SDS011;17195;50.838;7.214;2023-07-08T01:56:31;8.52;;;5.35;;
30398;SDS011;17195;50.838;7.214;2023-07-08T01:58:56;8.55;;;6.35;;
30398;SDS011;17195;50.838;7.214;2023-07-08T02:01:22;9.63;;;6.35;;
30398;SDS011;17195;50.838;7.214;2023-07-08T02:03:47;8.35;;;5.80;;
30398;SDS011;17195;50.838;7.214;2023-07-08T02:06:13;9.45;;;5.78;;
30398;SDS011;17195;50.838;7.214;2023-07-08T02:08:39;8.52;;;5.97;;
30398;SDS011;17195;50.838;7.214;2023-07-08T02:11:04;9.35;;;5.88;;
30398;SDS011;17195;50.838;7.214;2023-07-08T02:13:30;7.35;;;5.63;;
30398;SDS011;17195;50.838;7.214;2023-07-08T02:15:55;8.38;;;5.45;;
30398;SDS011;17195;50.838;7.214;2023-07-08T02:18:21;6.43;;;5.10;;
30398;SDS011;17195;50.838;7.214;2023-07-08T02:20:50;8.75;;;5.50;;
30398;SDS011;17195;50.838;7.214;2023-07-08T02:23:15;9.18;;;5.75;;
30398;SDS011;17195;50.838;7.214;2023-07-08T02:25:41;7.00;;;5.07;;
30398;SDS011;17195;50.838;7.214;2023-07-08T02:28:14;6.35;;;5.28;;
30398;SDS011;17195;50.838;7.214;2023-07-08T02:30:40;7.63;;;5.65;;
30398;SDS011;17195;50.838;7.214;2023-07-08T02:33:06;6.43;;;4.97;;
30398;SDS011;17195;50.838;7.214;2023-07-08T02:35:31;7.60;;;4.88;;
30398;SDS011;17195;50.838;7.214;2023-07-08T02:37:57;6.03;;;4.43;;
30398;SDS011;17195;50.838;7.214;2023-07-08T02:40:23;5.35;;;4.45;;
30398;SDS011;17195;50.838;7.214;2023-07-08T02:42:50;8.65;;;4.53;;
30398;SDS011;17195;50.838;7.214;2023-07-08T02:45:17;6.20;;;4.80;;
30398;SDS011;17195;50.838;7.214;2023-07-08T02:47:43;6.95;;;4.60;;
30398;SDS011;17195;50.838;7.214;2023-07-08T02:50:10;5.15;;;4.65;;
30398;SDS011;17195;50.838;7.214;2023-07-08T02:52:36;5.60;;;5.07;;
30398;SDS011;17195;50.838;7.214;2023-07-08T02:55:02;7.32;;;4.35;;
30398;SDS011;17195;50.838;7.214;2023-07-08T02:57:28;6.95;;;4.78;;
30398;SDS011;17195;50.838;7.214;2023-07-08T02:59:53;7.50;;;4.80;;
30398;SDS011;17195;50.838;7.214;2023-07-08T03:02:21;6.88;;;4.47;;
30398;SDS011;17195;50.838;7.214;2023-07-08T03:04:47;5.07;;;4.50;;
30398;SDS011;17195;50.838;7.214;2023-07-08T03:07:14;5.45;;;4.88;;
30398;SDS011;17195;50.838;7.214;2023-07-08T03:09:41;6.57;;;4.53;;
30398;SDS011;17195;50.838;7.214;2023-07-08T03:12:07;5.20;;;4.40;;
30398;SDS011;17195;50.838;7.214;2023-07-08T03:14:34;5.40;;;4.40;;
30398;SDS011;17195;50.838;7.214;2023-07-08T03:17:00;8.77;;;4.68;;
30398;SDS011;17195;50.838;7.214;2023-07-08T03:19:26;7.88;;;4.80;;
30398;SDS011;17195;50.838;7.214;2023-07-08T03:21:51;6.35;;;5.05;;
30398;SDS011;17195;50.838;7.214;2023-07-08T03:24:17;5.20;;;4.15;;
30398;SDS011;17195;50.838;7.214;2023-07-08T03:26:43;5.57;;;4.60;;
30398;SDS011;17195;50.838;7.214;2023-07-08T03:29:11;4.13;;;3.72;;
30398;SDS011;17195;50.838;7.214;2023-07-08T03:31:40;5.28;;;4.30;;
30398;SDS011;17195;50.838;7.214;2023-07-08T03:34:06;5.60;;;4.43;;
30398;SDS011;17195;50.838;7.214;2023-07-08T03:36:37;5.35;;;4.80;;
30398;SDS011;17195;50.838;7.214;2023-07-08T03:39:22;5.78;;;4.20;;
30398;SDS011;17195;50.838;7.214;2023-07-08T03:41:49;7.60;;;4.22;;
30398;SDS011;17195;50.838;7.214;2023-07-08T03:44:16;5.78;;;4.40;;
30398;SDS011;17195;50.838;7.214;2023-07-08T03:46:45;5.07;;;4.10;;
30398;SDS011;17195;50.838;7.214;2023-07-08T03:49:12;5.65;;;3.67;;
30398;SDS011;17195;50.838;7.214;2023-07-08T03:51:39;5.50;;;3.95;;
30398;SDS011;17195;50.838;7.214;2023-07-08T03:54:07;6.00;;;4.20;;
30398;SDS011;17195;50.838;7.214;2023-07-08T03:56:36;5.53;;;3.47;;
30398;SDS011;17195;50.838;7.214;2023-07-08T03:59:01;6.53;;;3.88;;
30398;SDS011;17195;50.838;7.214;2023-07-08T04:01:27;5.55;;;3.95;;
30398;SDS011;17195;50.838;7.214;2023-07-08T04:03:54;6.40;;;4.07;;
30398;SDS011;17195;50.838;7.214;2023-07-08T04:06:22;5.80;;;3.78;;
30398;SDS011;17195;50.838;7.214;2023-07-08T04:08:48;5.40;;;4.40;;
30398;SDS011;17195;50.838;7.214;2023-07-08T04:11:15;5.70;;;4.05;;
30398;SDS011;17195;50.838;7.214;2023-07-08T04:13:43;11.25;;;4.15;;
30398;SDS011;17195;50.838;7.214;2023-07-08T04:16:13;5.25;;;4.15;;
30398;SDS011;17195;50.838;7.214;2023-07-08T04:19:16;7.38;;;3.78;;
30398;SDS011;17195;50.838;7.214;2023-07-08T04:21:42;4.93;;;4.20;;
30398;SDS011;17195;50.838;7.214;2023-07-08T04:24:09;5.68;;;4.20;;
30398;SDS011;17195;50.838;7.214;2023-07-08T04:26:36;5.78;;;4.18;;
30398;SDS011;17195;50.838;7.214;2023-07-08T04:29:04;4.07;;;3.67;;
30398;SDS011;17195;50.838;7.214;2023-07-08T04:31:37;5.93;;;4.22;;
30398;SDS011;17195;50.838;7.214;2023-07-08T04:34:02;6.63;;;4.47;;
30398;SDS011;17195;50.838;7.214;2023-07-08T04:36:28;5.78;;;4.22;;
30398;SDS011;17195;50.838;7.214;2023-07-08T04:38:54;6.70;;;4.32;;
30398;SDS011;17195;50.838;7.214;2023-07-08T04:41:22;5.18;;;4.38;;
30398;SDS011;17195;50.838;7.214;2023-07-08T04:43:50;4.25;;;3.80;;
30398;SDS011;17195;50.838;7.214;2023-07-08T04:46:37;5.03;;;4.07;;
30398;SDS011;17195;50.838;7.214;2023-07-08T04:49:07;5.30;;;3.97;;
30398;SDS011;17195;50.838;7.214;2023-07-08T04:51:37;5.80;;;4.22;;
30398;SDS011;17195;50.838;7.214;2023-07-08T04:54:02;5.70;;;4.45;;
30398;SDS011;17195;50.838;7.214;2023-07-08T04:56:42;6.03;;;4.07;;
30398;SDS011;17195;50.838;7.214;2023-07-08T04:59:09;5.28;;;4.47;;
30398;SDS011;17195;50.838;7.214;2023-07-08T05:01:36;7.22;;;4.60;;
30398;SDS011;17195;50.838;7.214;2023-07-08T05:04:02;7.05;;;4.40;;
30398;SDS011;17195;50.838;7.214;2023-07-08T05:06:30;6.30;;;4.55;;
30398;SDS011;17195;50.838;7.214;2023-07-08T05:08:57;6.95;;;4.50;;
30398;SDS011;17195;50.838;7.214;2023-07-08T05:11:23;7.93;;;4.50;;
30398;SDS011;17195;50.838;7.214;2023-07-08T05:13:49;5.22;;;4.47;;
30398;SDS011;17195;50.838;7.214;2023-07-08T05:16:14;5.47;;;4.55;;
30398;SDS011;17195;50.838;7.214;2023-07-08T05:18:40;4.30;;;3.80;;
30398;SDS011;17195;50.838;7.214;2023-07-08T05:21:06;6.75;;;3.97;;
30398;SDS011;17195;50.838;7.214;2023-07-08T05:23:32;4.25;;;3.40;;
30398;SDS011;17195;50.838;7.214;2023-07-08T05:25:59;4.75;;;3.28;;
30398;SDS011;17195;50.838;7.214;2023-07-08T05:28:25;4.50;;;3.47;;
30398;SDS011;17195;50.838;7.214;2023-07-08T05:30:54;5.43;;;4.13;;
30398;SDS011;17195;50.838;7.214;2023-07-08T05:33:21;3.80;;;3.50;;
30398;SDS011;17195;50.838;7.214;2023-07-08T05:35:50;6.00;;;4.03;;
30398;SDS011;17195;50.838;7.214;2023-07-08T05:38:16;6.60;;;4.20;;
30398;SDS011;17195;50.838;7.214;2023-07-08T05:40:42;5.75;;;4.18;;
30398;SDS011;17195;50.838;7.214;2023-07-08T05:43:07;5.43;;;3.92;;
30398;SDS011;17195;50.838;7.214;2023-07-08T05:45:33;8.43;;;4.60;;
30398;SDS011;17195;50.838;7.214;2023-07-08T05:48:00;7.60;;;4.90;;
30398;SDS011;17195;50.838;7.214;2023-07-08T05:50:26;5.93;;;4.50;;
30398;SDS011;17195;50.838;7.214;2023-07-08T05:52:52;7.10;;;3.95;;
30398;SDS011;17195;50.838;7.214;2023-07-08T05:55:18;5.53;;;4.30;;
30398;SDS011;17195;50.838;7.214;2023-07-08T05:57:43;4.80;;;4.22;;
30398;SDS011;17195;50.838;7.214;2023-07-08T06:00:09;5.47;;;3.83;;
30398;SDS011;17195;50.838;7.214;2023-07-08T06:02:35;7.20;;;4.22;;
30398;SDS011;17195;50.838;7.214;2023-07-08T06:05:01;5.22;;;4.28;;
30398;SDS011;17195;50.838;7.214;2023-07-08T06:07:27;6.03;;;3.75;;
30398;SDS011;17195;50.838;7.214;2023-07-08T06:09:52;4.65;;;4.00;;
30398;SDS011;17195;50.838;7.214;2023-07-08T06:12:20;5.53;;;3.80;;
30398;SDS011;17195;50.838;7.214;2023-07-08T06:14:46;5.78;;;4.50;;
30398;SDS011;17195;50.838;7.214;2023-07-08T06:17:12;8.00;;;3.67;;
30398;SDS011;17195;50.838;7.214;2023-07-08T06:19:38;7.28;;;4.00;;
30398;SDS011;17195;50.838;7.214;2023-07-08T06:22:03;4.45;;;3.53;;
30398;SDS011;17195;50.838;7.214;2023-07-08T06:24:29;4.18;;;3.65;;
30398;SDS011;17195;50.838;7.214;2023-07-08T06:26:55;5.00;;;3.88;;
30398;SDS011;17195;50.838;7.214;2023-07-08T06:29:20;6.13;;;3.60;;
30398;SDS011;17195;50.838;7.214;2023-07-08T06:31:46;6.72;;;4.20;;
30398;SDS011;17195;50.838;7.214;2023-07-08T06:34:11;5.03;;;3.80;;
30398;SDS011;17195;50.838;7.214;2023-07-08T06:36:37;6.68;;;3.88;;
30398;SDS011;17195;50.838;7.214;2023-07-08T06:39:03;6.85;;;4.05;;
30398;SDS011;17195;50.838;7.214;2023-07-08T06:41:31;4.90;;;4.28;;
30398;SDS011;17195;50.838;7.214;2023-07-08T06:43:57;5.68;;;4.03;;
30398;SDS011;17195;50.838;7.214;2023-07-08T06:46:23;5.80;;;4.05;;
30398;SDS011;17195;50.838;7.214;2023-07-08T06:48:49;5.35;;;4.20;;
30398;SDS011;17195;50.838;7.214;2023-07-08T06:51:15;5.38;;;4.15;;
30398;SDS011;17195;50.838;7.214;2023-07-08T06:53:41;6.63;;;4.43;;
30398;SDS011;17195;50.838;7.214;2023-07-08T06:56:06;4.78;;;3.95;;
30398;SDS011;17195;50.838;7.214;2023-07-08T06:58:33;6.03;;;3.83;;
30398;SDS011;17195;50.838;7.214;2023-07-08T07:00:58;6.68;;;4.32;;
30398;SDS011;17195;50.838;7.214;2023-07-08T07:03:24;6.10;;;4.68;;
30398;SDS011;17195;50.838;7.214;2023-07-08T07:05:50;6.30;;;5.22;;
30398;SDS011;17195;50.838;7.214;2023-07-08T07:08:15;8.50;;;6.28;;
30398;SDS011;17195;50.838;7.214;2023-07-08T07:10:41;6.00;;;5.40;;
30398;SDS011;17195;50.838;7.214;2023-07-08T07:13:07;7.07;;;4.30;;
30398;SDS011;17195;50.838;7.214;2023-07-08T07:15:33;5.45;;;4.70;;
30398;SDS011;17195;50.838;7.214;2023-07-08T07:17:58;5.57;;;4.63;;
30398;SDS011;17195;50.838;7.214;2023-07-08T07:20:24;5.53;;;4.45;;
30398;SDS011;17195;50.838;7.214;2023-07-08T07:22:51;7.15;;;5.00;;
30398;SDS011;17195;50.838;7.214;2023-07-08T07:25:17;4.93;;;4.22;;
30398;SDS011;17195;50.838;7.214;2023-07-08T07:27:42;6.97;;;4.65;;
30398;SDS011;17195;50.838;7.214;2023-07-08T07:30:08;6.55;;;4.50;;
30398;SDS011;17195;50.838;7.214;2023-07-08T07:32:37;7.25;;;5.03;;
30398;SDS011;17195;50.838;7.214;2023-07-08T07:35:04;5.95;;;4.68;;
30398;SDS011;17195;50.838;7.214;2023-07-08T07:37:30;6.03;;;5.05;;
30398;SDS011;17195;50.838;7.214;2023-07-08T07:39:55;6.35;;;4.72;;
30398;SDS011;17195;50.838;7.214;2023-07-08T07:42:21;6.20;;;4.43;;
30398;SDS011;17195;50.838;7.214;2023-07-08T07:44:47;5.03;;;4.30;;
30398;SDS011;17195;50.838;7.214;2023-07-08T07:47:12;6.53;;;5.07;;
30398;SDS011;17195;50.838;7.214;2023-07-08T07:49:38;5.72;;;4.45;;
30398;SDS011;17195;50.838;7.214;2023-07-08T07:52:04;6.57;;;5.00;;
30398;SDS011;17195;50.838;7.214;2023-07-08T07:54:30;8.40;;;4.80;;
30398;SDS011;17195;50.838;7.214;2023-07-08T07:56:56;8.77;;;4.85;;
30398;SDS011;17195;50.838;7.214;2023-07-08T07:59:21;6.43;;;4.95;;
30398;SDS011;17195;50.838;7.214;2023-07-08T08:01:47;6.22;;;5.38;;
30398;SDS011;17195;50.838;7.214;2023-07-08T08:04:13;5.95;;;4.78;;
30398;SDS011;17195;50.838;7.214;2023-07-08T08:06:38;6.57;;;4.85;;
30398;SDS011;17195;50.838;7.214;2023-07-08T08:09:04;6.07;;;5.13;;
30398;SDS011;17195;50.838;7.214;2023-07-08T08:11:31;6.35;;;4.78;;
30398;SDS011;17195;50.838;7.214;2023-07-08T08:13:57;4.95;;;4.45;;
30398;SDS011;17195;50.838;7.214;2023-07-08T08:16:23;6.28;;;4.93;;
30398;SDS011;17195;50.838;7.214;2023-07-08T08:18:49;5.88;;;4.80;;
30398;SDS011;17195;50.838;7.214;2023-07-08T08:21:14;7.10;;;4.50;;
30398;SDS011;17195;50.838;7.214;2023-07-08T08:23:40;6.32;;;4.55;;
30398;SDS011;17195;50.838;7.214;2023-07-08T08:26:06;5.47;;;4.30;;
30398;SDS011;17195;50.838;7.214;2023-07-08T08:28:32;4.82;;;4.28;;
30398;SDS011;17195;50.838;7.214;2023-07-08T08:30:58;7.68;;;4.45;;
30398;SDS011;17195;50.838;7.214;2023-07-08T08:33:23;5.32;;;4.25;;
30398;SDS011;17195;50.838;7.214;2023-07-08T08:35:49;10.10;;;4.45;;
30398;SDS011;17195;50.838;7.214;2023-07-08T08:38:14;5.97;;;4.10;;
30398;SDS011;17195;50.838;7.214;2023-07-08T08:40:41;4.60;;;4.20;;
30398;SDS011;17195;50.838;7.214;2023-07-08T08:43:18;8.63;;;3.97;;
30398;SDS011;17195;50.838;7.214;2023-07-08T08:48:20;5.93;;;3.80;;
30398;SDS011;17195;50.838;7.214;2023-07-08T08:50:54;6.40;;;4.50;;
30398;SDS011;17195;50.838;7.214;2023-07-08T08:53:24;10.88;;;4.32;;
30398;SDS011;17195;50.838;7.214;2023-07-08T08:56:39;4.75;;;4.25;;
30398;SDS011;17195;50.838;7.214;2023-07-08T08:58:46;8.88;;;4.38;;
30398;SDS011;17195;50.838;7.214;2023-07-08T09:01:53;7.80;;;5.32;;
30398;SDS011;17195;50.838;7.214;2023-07-08T09:04:21;5.75;;;4.15;;
30398;SDS011;17195;50.838;7.214;2023-07-08T09:06:51;5.47;;;4.00;;
30398;SDS011;17195;50.838;7.214;2023-07-08T09:09:24;6.97;;;4.10;;
30398;SDS011;17195;50.838;7.214;2023-07-08T09:12:08;5.80;;;3.80;;
30398;SDS011;17195;50.838;7.214;2023-07-08T09:14:38;7.43;;;4.03;;
30398;SDS011;17195;50.838;7.214;2023-07-08T09:19:43;9.70;;;4.40;;
30398;SDS011;17195;50.838;7.214;2023-07-08T09:27:51;7.45;;;3.95;;
30398;SDS011;17195;50.838;7.214;2023-07-08T09:30:19;6.50;;;3.80;;
30398;SDS011;17195;50.838;7.214;2023-07-08T09:32:46;4.70;;;3.92;;
30398;SDS011;17195;50.838;7.214;2023-07-08T09:35:22;6.47;;;3.90;;
30398;SDS011;17195;50.838;7.214;2023-07-08T09:37:50;5.95;;;4.03;;
30398;SDS011;17195;50.838;7.214;2023-07-08T09:40:50;5.55;;;3.85;;
30398;SDS011;17195;50.838;7.214;2023-07-08T09:45:48;5.10;;;3.88;;
30398;SDS011;17195;50.838;7.214;2023-07-08T09:48:15;5.35;;;3.30;;
30398;SDS011;17195;50.838;7.214;2023-07-08T09:50:44;5.50;;;3.33;;
30398;SDS011;17195;50.838;7.214;2023-07-08T09:53:12;6.03;;;3.70;;
30398;SDS011;17195;50.838;7.214;2023-07-08T09:55:39;4.25;;;3.47;;
30398;SDS011;17195;50.838;7.214;2023-07-08T09:58:05;6.43;;;3.63;;
30398;SDS011;17195;50.838;7.214;2023-07-08T10:00:38;4.35;;;3.50;;
30398;SDS011;17195;50.838;7.214;2023-07-08T10:03:08;6.10;;;4.03;;
30398;SDS011;17195;50.838;7.214;2023-07-08T10:05:35;5.47;;;3.60;;
30398;SDS011;17195;50.838;7.214;2023-07-08T10:08:13;8.02;;;5.18;;
30398;SDS011;17195;50.838;7.214;2023-07-08T10:10:48;10.60;;;4.53;;
30398;SDS011;17195;50.838;7.214;2023-07-08T10:13:41;4.47;;;3.35;;
30398;SDS011;17195;50.838;7.214;2023-07-08T10:18:39;5.75;;;3.30;;
30398;SDS011;17195;50.838;7.214;2023-07-08T10:21:54;5.50;;;4.03;;
30398;SDS011;17195;50.838;7.214;2023-07-08T10:27:44;5.57;;;3.58;;
30398;SDS011;17195;50.838;7.214;2023-07-08T10:30:11;6.63;;;4.05;;
30398;SDS011;17195;50.838;7.214;2023-07-08T10:35:35;4.55;;;3.67;;
30398;SDS011;17195;50.838;7.214;2023-07-08T10:40:48;4.90;;;3.35;;
30398;SDS011;17195;50.838;7.214;2023-07-08T10:43:29;5.93;;;3.60;;
30398;SDS011;17195;50.838;7.214;2023-07-08T10:54:34;4.55;;;3.30;;
30398;SDS011;17195;50.838;7.214;2023-07-08T11:07:59;6.45;;;3.75;;
30398;SDS011;17195;50.838;7.214;2023-07-08T11:13:20;4.07;;;2.97;;
30398;SDS011;17195;50.838;7.214;2023-07-08T11:15:56;5.00;;;3.38;;
30398;SDS011;17195;50.838;7.214;2023-07-08T11:23:54;7.88;;;5.00;;
30398;SDS011;17195;50.838;7.214;2023-07-08T11:26:29;6.15;;;3.47;;
30398;SDS011;17195;50.838;7.214;2023-07-08T11:29:02;4.88;;;3.53;;
30398;SDS011;17195;50.838;7.214;2023-07-08T11:31:34;8.43;;;3.90;;
30398;SDS011;17195;50.838;7.214;2023-07-08T11:34:00;6.07;;;3.85;;
30398;SDS011;17195;50.838;7.214;2023-07-08T11:36:26;7.63;;;3.85;;
30398;SDS011;17195;50.838;7.214;2023-07-08T11:38:54;5.18;;;3.60;;
30398;SDS011;17195;50.838;7.214;2023-07-08T11:41:21;4.15;;;3.28;;
30398;SDS011;17195;50.838;7.214;2023-07-08T11:43:51;9.38;;;3.83;;
30398;SDS011;17195;50.838;7.214;2023-07-08T11:46:22;6.68;;;3.35;;
30398;SDS011;17195;50.838;7.214;2023-07-08T11:48:51;7.15;;;4.10;;
30398;SDS011;17195;50.838;7.214;2023-07-08T11:51:40;8.68;;;3.90;;
30398;SDS011;17195;50.838;7.214;2023-07-08T11:54:11;5.78;;;3.67;;
30398;SDS011;17195;50.838;7.214;2023-07-08T11:59:23;9.18;;;4.25;;
30398;SDS011;17195;50.838;7.214;2023-07-08T12:04:20;6.65;;;4.28;;
30398;SDS011;17195;50.838;7.214;2023-07-08T12:10:17;6.05;;;4.43;;
30398;SDS011;17195;50.838;7.214;2023-07-08T12:13:05;6.95;;;4.50;;
30398;SDS011;17195;50.838;7.214;2023-07-08T12:15:37;6.57;;;4.13;;
30398;SDS011;17195;50.838;7.214;2023-07-08T12:18:06;5.38;;;4.20;;
30398;SDS011;17195;50.838;7.214;2023-07-08T12:20:41;8.18;;;4.30;;
30398;SDS011;17195;50.838;7.214;2023-07-08T12:23:11;6.60;;;4.18;;
30398;SDS011;17195;50.838;7.214;2023-07-08T12:25:38;6.68;;;4.22;;
30398;SDS011;17195;50.838;7.214;2023-07-08T12:28:04;5.38;;;4.07;;
30398;SDS011;17195;50.838;7.214;2023-07-08T12:30:30;4.82;;;3.90;;
30398;SDS011;17195;50.838;7.214;2023-07-08T12:32:57;7.40;;;3.75;;
30398;SDS011;17195;50.838;7.214;2023-07-08T12:38:09;7.88;;;4.60;;
30398;SDS011;17195;50.838;7.214;2023-07-08T12:40:38;8.20;;;4.63;;
30398;SDS011;17195;50.838;7.214;2023-07-08T12:43:07;7.60;;;4.65;;
30398;SDS011;17195;50.838;7.214;2023-07-08T12:45:35;7.25;;;4.43;;
30398;SDS011;17195;50.838;7.214;2023-07-08T12:48:01;7.93;;;4.10;;
30398;SDS011;17195;50.838;7.214;2023-07-08T12:50:27;7.05;;;4.20;;
30398;SDS011;17195;50.838;7.214;2023-07-08T12:52:53;7.50;;;4.47;;
30398;SDS011;17195;50.838;7.214;2023-07-08T12:55:18;7.05;;;4.05;;
30398;SDS011;17195;50.838;7.214;2023-07-08T12:57:45;6.13;;;4.20;;
30398;SDS011;17195;50.838;7.214;2023-07-08T13:00:33;5.03;;;3.80;;
30398;SDS011;17195;50.838;7.214;2023-07-08T13:04:04;6.82;;;4.35;;
30398;SDS011;17195;50.838;7.214;2023-07-08T13:06:05;6.20;;;3.97;;
30398;SDS011;17195;50.838;7.214;2023-07-08T13:08:34;9.75;;;3.90;;
30398;SDS011;17195;50.838;7.214;2023-07-08T13:11:02;6.47;;;4.18;;
30398;SDS011;17195;50.838;7.214;2023-07-08T13:13:31;5.38;;;4.20;;
30398;SDS011;17195;50.838;7.214;2023-07-08T13:16:01;6.63;;;4.10;;
30398;SDS011;17195;50.838;7.214;2023-07-08T13:18:38;9.55;;;4.50;;
30398;SDS011;17195;50.838;7.214;2023-07-08T13:21:06;6.63;;;3.90;;
30398;SDS011;17195;50.838;7.214;2023-07-08T13:23:35;6.80;;;4.35;;
30398;SDS011;17195;50.838;7.214;2023-07-08T13:26:01;5.20;;;4.18;;
30398;SDS011;17195;50.838;7.214;2023-07-08T13:28:44;5.68;;;3.65;;
30398;SDS011;17195;50.838;7.214;2023-07-08T13:31:17;6.25;;;4.15;;
30398;SDS011;17195;50.838;7.214;2023-07-08T13:33:49;4.47;;;3.47;;
30398;SDS011;17195;50.838;7.214;2023-07-08T13:36:18;7.07;;;4.47;;
30398;SDS011;17195;50.838;7.214;2023-07-08T13:38:47;5.72;;;4.32;;
30398;SDS011;17195;50.838;7.214;2023-07-08T13:41:17;6.57;;;4.10;;
30398;SDS011;17195;50.838;7.214;2023-07-08T13:43:46;5.82;;;3.92;;
30398;SDS011;17195;50.838;7.214;2023-07-08T13:49:38;5.03;;;3.80;;
30398;SDS011;17195;50.838;7.214;2023-07-08T13:54:41;8.30;;;4.22;;
30398;SDS011;17195;50.838;7.214;2023-07-08T13:57:14;6.23;;;4.60;;
30398;SDS011;17195;50.838;7.214;2023-07-08T13:59:42;6.60;;;3.88;;
30398;SDS011;17195;50.838;7.214;2023-07-08T14:02:18;4.57;;;3.90;;
30398;SDS011;17195;50.838;7.214;2023-07-08T14:04:47;5.55;;;4.60;;
30398;SDS011;17195;50.838;7.214;2023-07-08T14:07:25;7.30;;;4.18;;
30398;SDS011;17195;50.838;7.214;2023-07-08T14:09:54;5.97;;;4.30;;
30398;SDS011;17195;50.838;7.214;2023-07-08T14:12:20;4.60;;;4.07;;
30398;SDS011;17195;50.838;7.214;2023-07-08T14:14:46;5.55;;;3.88;;
30398;SDS011;17195;50.838;7.214;2023-07-08T14:17:14;10.00;;;4.05;;
30398;SDS011;17195;50.838;7.214;2023-07-08T14:19:43;8.82;;;4.60;;
30398;SDS011;17195;50.838;7.214;2023-07-08T14:24:40;5.25;;;3.78;;
30398;SDS011;17195;50.838;7.214;2023-07-08T14:27:08;5.00;;;3.92;;
30398;SDS011;17195;50.838;7.214;2023-07-08T14:29:37;6.43;;;4.18;;
30398;SDS011;17195;50.838;7.214;2023-07-08T14:32:16;6.95;;;4.25;;
30398;SDS011;17195;50.838;7.214;2023-07-08T14:35:34;6.32;;;4.53;;
30398;SDS011;17195;50.838;7.214;2023-07-08T14:37:51;4.95;;;4.45;;
30398;SDS011;17195;50.838;7.214;2023-07-08T14:40:19;4.63;;;3.88;;
30398;SDS011;17195;50.838;7.214;2023-07-08T14:42:51;6.13;;;4.55;;
30398;SDS011;17195;50.838;7.214;2023-07-08T14:45:25;7.43;;;3.88;;
30398;SDS011;17195;50.838;7.214;2023-07-08T14:47:51;7.43;;;4.53;;
30398;SDS011;17195;50.838;7.214;2023-07-08T14:50:16;5.30;;;4.32;;
30398;SDS011;17195;50.838;7.214;2023-07-08T14:52:42;8.95;;;5.35;;
30398;SDS011;17195;50.838;7.214;2023-07-08T14:55:08;6.43;;;4.60;;
30398;SDS011;17195;50.838;7.214;2023-07-08T14:57:39;8.32;;;4.82;;
30398;SDS011;17195;50.838;7.214;2023-07-08T15:00:12;8.30;;;4.25;;
30398;SDS011;17195;50.838;7.214;2023-07-08T15:02:41;6.57;;;4.40;;
30398;SDS011;17195;50.838;7.214;2023-07-08T15:05:13;6.70;;;4.22;;
30398;SDS011;17195;50.838;7.214;2023-07-08T15:07:40;6.47;;;4.72;;
30398;SDS011;17195;50.838;7.214;2023-07-08T15:10:06;8.48;;;4.45;;
30398;SDS011;17195;50.838;7.214;2023-07-08T15:12:32;6.22;;;4.07;;
30398;SDS011;17195;50.838;7.214;2023-07-08T15:14:58;7.28;;;3.97;;
30398;SDS011;17195;50.838;7.214;2023-07-08T15:17:23;8.15;;;4.30;;
30398;SDS011;17195;50.838;7.214;2023-07-08T15:19:50;6.32;;;4.07;;
30398;SDS011;17195;50.838;7.214;2023-07-08T15:22:16;8.05;;;3.70;;
30398;SDS011;17195;50.838;7.214;2023-07-08T15:24:42;6.68;;;3.90;;
30398;SDS011;17195;50.838;7.214;2023-07-08T15:27:17;7.18;;;5.53;;
30398;SDS011;17195;50.838;7.214;2023-07-08T15:29:44;5.47;;;4.03;;
30398;SDS011;17195;50.838;7.214;2023-07-08T15:32:13;5.22;;;4.10;;
30398;SDS011;17195;50.838;7.214;2023-07-08T15:34:40;6.90;;;4.43;;
30398;SDS011;17195;50.838;7.214;2023-07-08T15:37:06;7.82;;;4.50;;
30398;SDS011;17195;50.838;7.214;2023-07-08T15:39:31;5.70;;;5.03;;
30398;SDS011;17195;50.838;7.214;2023-07-08T15:41:57;7.50;;;4.82;;
30398;SDS011;17195;50.838;7.214;2023-07-08T15:44:23;5.82;;;5.05;;
30398;SDS011;17195;50.838;7.214;2023-07-08T15:46:49;8.43;;;4.35;;
30398;SDS011;17195;50.838;7.214;2023-07-08T15:49:17;7.95;;;4.80;;
30398;SDS011;17195;50.838;7.214;2023-07-08T15:51:47;4.93;;;4.25;;
30398;SDS011;17195;50.838;7.214;2023-07-08T15:54:13;5.72;;;4.07;;
30398;SDS011;17195;50.838;7.214;2023-07-08T15:56:39;8.55;;;4.30;;
30398;SDS011;17195;50.838;7.214;2023-07-08T15:59:13;6.95;;;4.35;;
30398;SDS011;17195;50.838;7.214;2023-07-08T16:01:42;5.68;;;4.60;;
30398;SDS011;17195;50.838;7.214;2023-07-08T16:04:15;7.28;;;4.32;;
30398;SDS011;17195;50.838;7.214;2023-07-08T16:06:48;10.13;;;4.32;;
30398;SDS011;17195;50.838;7.214;2023-07-08T16:09:13;5.45;;;4.00;;
30398;SDS011;17195;50.838;7.214;2023-07-08T16:11:39;4.25;;;3.83;;
30398;SDS011;17195;50.838;7.214;2023-07-08T16:14:04;6.38;;;4.07;;
30398;SDS011;17195;50.838;7.214;2023-07-08T16:16:30;5.90;;;3.83;;
30398;SDS011;17195;50.838;7.214;2023-07-08T16:18:56;4.05;;;3.58;;
30398;SDS011;17195;50.838;7.214;2023-07-08T16:21:22;6.60;;;4.00;;